createdAt,value
2022-11-21T00:00:04.786Z,17.88
2022-11-21T00:02:31.062Z,19.45
2022-11-21T00:04:57.969Z,19.52
2022-11-21T00:07:24.268Z,19.58
2022-11-21T00:09:50.630Z,20.50
2022-11-21T00:12:16.929Z,20.48
2022-11-21T00:14:43.205Z,20.90
2022-11-21T00:17:09.841Z,20.35
2022-11-21T00:19:36.136Z,20.58
2022-11-21T00:22:02.417Z,20.77
2022-11-21T00:24:28.985Z,21.17
2022-11-21T00:26:55.509Z,21.67
2022-11-21T00:29:21.798Z,19.48
2022-11-21T00:31:48.063Z,20.55
2022-11-21T00:34:15.789Z,19.40
2022-11-21T00:36:42.278Z,19.65
2022-11-21T00:39:08.585Z,20.13
2022-11-21T00:41:34.884Z,18.90
2022-11-21T00:44:01.156Z,18.08
2022-11-21T00:46:27.468Z,20.00
2022-11-21T00:48:53.760Z,16.10
2022-11-21T00:51:20.175Z,16.65
2022-11-21T00:53:46.578Z,15.45
2022-11-21T00:56:13.048Z,16.02
2022-11-21T00:58:39.320Z,15.07
2022-11-21T01:01:07.559Z,15.82
2022-11-21T01:03:34.929Z,16.88
2022-11-21T01:06:02.446Z,16.52
2022-11-21T01:08:28.906Z,17.20
2022-11-21T01:10:55.180Z,17.65
2022-11-21T01:13:21.456Z,15.90
2022-11-21T01:15:47.729Z,16.15
2022-11-21T01:18:14.001Z,16.08
2022-11-21T01:20:40.499Z,16.05
2022-11-21T01:23:06.778Z,15.70
2022-11-21T01:25:36.291Z,15.43
2022-11-21T01:28:02.582Z,17.75
2022-11-21T01:30:28.873Z,18.27
2022-11-21T01:32:55.152Z,18.48
2022-11-21T01:35:21.445Z,21.60
2022-11-21T01:37:48.355Z,20.90
2022-11-21T01:40:14.949Z,20.15
2022-11-21T01:43:13.421Z,21.30
2022-11-21T01:45:48.830Z,21.50
2022-11-21T01:48:15.390Z,20.63
2022-11-21T01:50:41.721Z,19.10
2022-11-21T01:53:08.016Z,20.05
2022-11-21T01:55:34.750Z,19.45
2022-11-21T01:58:01.410Z,19.75
2022-11-21T02:00:28.959Z,21.67
2022-11-21T02:02:59.320Z,20.00
2022-11-21T02:05:27.999Z,20.40
2022-11-21T02:07:56.706Z,20.17
2022-11-21T02:10:23.225Z,19.88
2022-11-21T02:12:50.684Z,21.30
2022-11-21T02:15:17.722Z,19.33
2022-11-21T02:17:43.994Z,18.25
2022-11-21T02:20:12.290Z,17.20
2022-11-21T02:22:46.738Z,16.45
2022-11-21T02:25:15.305Z,16.52
2022-11-21T02:27:41.967Z,14.32
2022-11-21T02:30:09.367Z,13.93
2022-11-21T02:32:37.542Z,13.85
2022-11-21T02:35:04.430Z,14.95
2022-11-21T02:37:30.916Z,11.63
2022-11-21T02:39:58.825Z,11.75
2022-11-21T02:42:28.136Z,11.35
2022-11-21T02:45:14.672Z,11.18
2022-11-21T02:47:41.717Z,10.55
2022-11-21T02:50:15.351Z,11.32
2022-11-21T02:52:41.889Z,10.70
2022-11-21T02:55:08.908Z,10.27
2022-11-21T02:57:35.172Z,12.15
2022-11-21T03:00:01.479Z,10.70
2022-11-21T03:02:27.746Z,11.75
2022-11-21T03:04:54.037Z,12.10
2022-11-21T03:07:20.364Z,11.98
2022-11-21T03:09:46.684Z,12.30
2022-11-21T03:12:12.947Z,11.70
2022-11-21T03:14:39.270Z,12.35
2022-11-21T03:17:05.557Z,11.77
2022-11-21T03:19:31.859Z,12.50
2022-11-21T03:21:58.197Z,14.05
2022-11-21T03:24:24.610Z,12.50
2022-11-21T03:26:51.023Z,12.63
2022-11-21T03:29:17.320Z,12.98
2022-11-21T03:31:43.612Z,11.65
2022-11-21T03:34:10.012Z,11.65
2022-11-21T03:36:36.349Z,13.60
2022-11-21T03:39:03.161Z,11.18
2022-11-21T03:41:29.461Z,11.90
2022-11-21T03:43:59.485Z,11.23
2022-11-21T03:46:25.981Z,11.38
2022-11-21T03:48:52.326Z,11.05
2022-11-21T03:51:19.036Z,12.00
2022-11-21T03:53:45.338Z,12.25
2022-11-21T03:56:12.084Z,12.10
2022-11-21T03:58:38.378Z,12.05
2022-11-21T04:01:05.462Z,12.77
2022-11-21T04:03:32.218Z,11.90
2022-11-21T04:05:58.588Z,12.55
2022-11-21T04:08:25.089Z,11.38
2022-11-21T04:10:52.340Z,11.00
2022-11-21T04:13:18.692Z,11.95
2022-11-21T04:15:45.188Z,12.48
2022-11-21T04:18:12.000Z,13.25
2022-11-21T04:20:38.577Z,11.93
2022-11-21T04:23:04.877Z,11.45
2022-11-21T04:25:31.266Z,12.95
2022-11-21T04:28:00.797Z,12.45
2022-11-21T04:30:27.465Z,13.30
2022-11-21T04:32:54.308Z,12.52
2022-11-21T04:35:21.314Z,13.57
2022-11-21T04:37:47.627Z,11.80
2022-11-21T04:40:14.412Z,11.63
2022-11-21T04:42:47.868Z,14.15
2022-11-21T04:45:14.861Z,13.90
2022-11-21T04:47:42.216Z,13.30
2022-11-21T04:50:09.495Z,12.30
2022-11-21T04:52:35.778Z,14.02
2022-11-21T04:55:02.068Z,13.15
2022-11-21T04:57:29.219Z,13.25
2022-11-21T04:59:55.587Z,15.55
2022-11-21T05:02:22.323Z,13.68
2022-11-21T05:04:48.650Z,13.75
2022-11-21T05:07:15.344Z,12.82
2022-11-21T05:09:41.632Z,13.43
2022-11-21T05:12:29.533Z,12.32
2022-11-21T05:14:56.275Z,13.50
2022-11-21T05:17:22.816Z,13.90
2022-11-21T05:19:49.104Z,14.18
2022-11-21T05:22:15.380Z,13.30
2022-11-21T05:24:41.654Z,12.98
2022-11-21T05:27:07.934Z,13.23
2022-11-21T05:29:34.194Z,13.90
2022-11-21T05:32:00.488Z,14.43
2022-11-21T05:34:27.066Z,13.90
2022-11-21T05:36:58.140Z,12.60
2022-11-21T05:39:24.899Z,13.63
2022-11-21T05:41:51.657Z,15.80
2022-11-21T05:44:18.284Z,16.02
2022-11-21T05:46:44.578Z,13.07
2022-11-21T05:49:11.318Z,12.93
2022-11-21T05:51:37.654Z,13.32
2022-11-21T05:54:04.360Z,13.55
2022-11-21T05:56:30.934Z,12.55
2022-11-21T05:58:58.161Z,14.07
2022-11-21T06:01:43.837Z,12.98
2022-11-21T06:04:10.569Z,12.80
2022-11-21T06:06:37.169Z,12.85
2022-11-21T06:09:03.970Z,12.32
2022-11-21T06:11:30.257Z,12.60
2022-11-21T06:13:56.693Z,11.05
2022-11-21T06:16:23.053Z,12.82
2022-11-21T06:18:57.930Z,13.95
2022-11-21T06:21:26.192Z,11.40
2022-11-21T06:23:53.688Z,13.85
2022-11-21T06:26:21.179Z,13.82
2022-11-21T06:28:47.956Z,11.98
2022-11-21T06:31:18.925Z,13.75
2022-11-21T06:33:45.236Z,13.20
2022-11-21T06:36:12.814Z,14.88
2022-11-21T06:38:39.742Z,13.40
2022-11-21T06:41:06.796Z,14.25
2022-11-21T06:43:33.079Z,13.50
2022-11-21T06:46:02.179Z,14.20
2022-11-21T06:48:28.637Z,13.57
2022-11-21T06:50:54.933Z,13.70
2022-11-21T06:53:21.290Z,13.73
2022-11-21T06:55:47.564Z,14.30
2022-11-21T06:58:13.833Z,14.32
2022-11-21T07:00:40.165Z,14.95
2022-11-21T07:03:06.411Z,15.02
2022-11-21T07:05:32.961Z,14.63
2022-11-21T07:07:59.984Z,16.02
2022-11-21T07:10:26.510Z,14.52
2022-11-21T07:13:14.763Z,15.38
2022-11-21T07:15:41.031Z,14.93
2022-11-21T07:18:07.322Z,14.95
2022-11-21T07:20:33.792Z,15.27
2022-11-21T07:23:01.072Z,14.95
2022-11-21T07:25:30.268Z,15.63
2022-11-21T07:27:59.750Z,16.25
2022-11-21T07:30:26.114Z,16.15
2022-11-21T07:32:59.211Z,16.23
2022-11-21T07:35:25.786Z,14.45
2022-11-21T07:37:52.456Z,15.48
2022-11-21T07:40:21.782Z,14.90
2022-11-21T07:42:48.121Z,15.88
2022-11-21T07:45:14.753Z,15.75
2022-11-21T07:47:41.306Z,16.20
2022-11-21T07:50:08.987Z,15.10
2022-11-21T07:52:38.347Z,14.50
2022-11-21T07:55:05.705Z,12.93
2022-11-21T07:57:32.696Z,13.10
2022-11-21T07:59:58.949Z,15.65
2022-11-21T08:02:26.349Z,11.45
2022-11-21T08:04:52.641Z,15.55
2022-11-21T08:07:20.829Z,10.57
2022-11-21T08:09:47.565Z,11.45
2022-11-21T08:12:14.230Z,11.68
2022-11-21T08:14:40.818Z,12.18
2022-11-21T08:17:07.701Z,12.90
2022-11-21T08:19:34.393Z,10.68
2022-11-21T08:22:00.930Z,12.13
2022-11-21T08:24:27.272Z,12.05
2022-11-21T08:26:53.613Z,11.10
2022-11-21T08:29:19.894Z,10.52
2022-11-21T08:31:46.218Z,9.43
2022-11-21T08:34:14.640Z,10.13
2022-11-21T08:36:41.121Z,10.32
2022-11-21T08:39:07.395Z,10.13
2022-11-21T08:41:52.256Z,10.77
2022-11-21T08:44:18.535Z,10.65
2022-11-21T08:46:44.818Z,10.50
2022-11-21T08:49:11.146Z,10.35
2022-11-21T08:51:37.453Z,9.95
2022-11-21T08:54:03.806Z,10.27
2022-11-21T08:56:30.757Z,9.15
2022-11-21T08:58:57.068Z,9.25
2022-11-21T09:01:23.687Z,10.70
2022-11-21T09:03:50.066Z,9.10
2022-11-21T09:06:16.465Z,9.52
2022-11-21T09:08:42.748Z,8.65
2022-11-21T09:11:09.836Z,9.25
2022-11-21T09:13:36.562Z,9.70
2022-11-21T09:16:22.158Z,11.63
2022-11-21T09:18:48.659Z,10.43
2022-11-21T09:21:15.886Z,9.25
2022-11-21T09:23:42.317Z,9.27
2022-11-21T09:26:08.661Z,10.52
2022-11-21T09:28:35.936Z,10.80
2022-11-21T09:31:02.918Z,10.77
2022-11-21T09:33:29.231Z,11.40
2022-11-21T09:35:57.909Z,10.10
2022-11-21T09:38:24.611Z,8.98
2022-11-21T09:40:50.918Z,10.25
2022-11-21T09:43:31.423Z,10.70
2022-11-21T09:48:27.222Z,10.88
2022-11-21T09:50:59.747Z,10.07
2022-11-21T09:53:27.952Z,11.32
2022-11-21T09:55:59.835Z,11.43
2022-11-21T09:58:47.558Z,9.80
2022-11-21T10:01:14.496Z,9.38
2022-11-21T10:03:47.269Z,9.43
2022-11-21T10:06:19.255Z,10.32
2022-11-21T10:08:45.510Z,9.75
2022-11-21T10:11:58.976Z,12.95
2022-11-21T10:14:43.877Z,9.57
2022-11-21T10:17:10.151Z,15.13
2022-11-21T10:19:48.856Z,11.48
2022-11-21T10:22:15.129Z,10.80
2022-11-21T10:24:50.435Z,12.50
2022-11-21T10:27:25.945Z,10.50
2022-11-21T10:30:18.854Z,11.23
2022-11-21T10:33:04.566Z,10.38
2022-11-21T10:35:41.002Z,8.23
2022-11-21T10:38:23.665Z,9.05
2022-11-21T10:41:03.824Z,9.45
2022-11-21T10:43:58.113Z,7.57
2022-11-21T10:46:24.402Z,8.25
2022-11-21T10:48:56.451Z,8.93
2022-11-21T10:51:27.562Z,8.43
2022-11-21T10:54:22.857Z,8.77
2022-11-21T10:56:49.741Z,9.30
2022-11-21T10:59:27.128Z,10.05
2022-11-21T11:02:19.364Z,8.98
2022-11-21T11:04:50.818Z,8.63
2022-11-21T11:07:23.416Z,8.45
2022-11-21T11:09:51.044Z,8.98
2022-11-21T11:12:25.654Z,9.38
2022-11-21T11:14:52.992Z,7.57
2022-11-21T11:17:26.362Z,10.05
2022-11-21T11:20:00.123Z,8.80
2022-11-21T11:22:27.768Z,7.80
2022-11-21T11:24:57.635Z,10.20
2022-11-21T11:27:27.734Z,9.77
2022-11-21T11:29:54.102Z,8.00
2022-11-21T11:32:21.843Z,7.40
2022-11-21T11:34:51.081Z,9.40
2022-11-21T11:37:21.033Z,8.48
2022-11-21T11:40:13.568Z,8.57
2022-11-21T11:43:01.501Z,8.38
2022-11-21T11:45:49.371Z,7.72
2022-11-21T11:48:16.653Z,8.05
2022-11-21T11:50:53.790Z,8.05
2022-11-21T11:53:21.326Z,8.82
2022-11-21T11:55:54.253Z,7.75
2022-11-21T11:58:24.194Z,8.95
2022-11-21T12:01:03.336Z,9.35
2022-11-21T12:03:45.258Z,8.38
2022-11-21T12:06:31.884Z,9.35
2022-11-21T12:09:15.754Z,7.82
2022-11-21T12:12:06.730Z,9.18
2022-11-21T12:15:01.059Z,9.73
2022-11-21T12:17:31.139Z,8.30
2022-11-21T12:19:57.936Z,10.05
2022-11-21T12:22:24.232Z,7.88
2022-11-21T12:24:50.549Z,8.20
2022-11-21T12:27:23.030Z,8.60
2022-11-21T12:29:56.874Z,9.15
2022-11-21T12:32:32.577Z,9.73
2022-11-21T12:35:17.321Z,9.13
2022-11-21T12:37:47.205Z,8.43
2022-11-21T12:40:16.543Z,9.98
2022-11-21T12:42:50.809Z,8.63
2022-11-21T12:45:24.409Z,10.68
2022-11-21T12:48:43.205Z,9.52
2022-11-21T12:51:43.370Z,9.88
2022-11-21T12:54:33.387Z,11.30
2022-11-21T12:56:59.662Z,10.40
2022-11-21T12:59:26.044Z,10.85
2022-11-21T13:01:55.208Z,11.23
2022-11-21T13:04:26.618Z,10.32
2022-11-21T13:06:54.048Z,10.93
2022-11-21T13:09:21.344Z,10.82
2022-11-21T13:11:58.932Z,11.50
2022-11-21T13:14:28.689Z,10.48
2022-11-21T13:17:02.149Z,11.38
2022-11-21T13:19:36.455Z,10.90
2022-11-21T13:22:02.733Z,10.13
2022-11-21T13:24:44.206Z,11.13
2022-11-21T13:27:32.180Z,13.30
2022-11-21T13:30:12.126Z,11.00
2022-11-21T13:32:50.796Z,12.65
2022-11-21T13:35:20.251Z,11.63
2022-11-21T13:37:49.670Z,12.40
2022-11-21T13:40:28.407Z,11.50
2022-11-21T13:43:33.081Z,10.70
2022-11-21T13:45:59.089Z,12.32
2022-11-21T13:48:28.121Z,11.68
2022-11-21T13:51:03.317Z,11.55
2022-11-21T13:53:42.050Z,11.93
2022-11-21T13:56:31.746Z,11.55
2022-11-21T13:59:18.241Z,12.27
2022-11-21T14:01:48.530Z,10.50
2022-11-21T14:06:44.767Z,13.07
2022-11-21T14:09:22.585Z,11.88
2022-11-21T14:11:50.292Z,13.63
2022-11-21T14:14:28.944Z,11.50
2022-11-21T14:17:01.411Z,10.88
2022-11-21T14:19:28.224Z,11.32
2022-11-21T14:21:55.404Z,12.13
2022-11-21T14:24:21.846Z,11.10
2022-11-21T14:26:49.669Z,12.68
2022-11-21T14:29:16.674Z,12.52
2022-11-21T14:31:47.201Z,11.40
2022-11-21T14:34:23.320Z,10.70
2022-11-21T14:36:49.674Z,11.35
2022-11-21T14:42:03.929Z,12.00
2022-11-21T14:44:30.496Z,10.18
2022-11-21T14:47:13.925Z,13.07
2022-11-21T14:49:47.956Z,14.73
2022-11-21T14:52:18.527Z,12.70
2022-11-21T14:57:34.526Z,12.90
2022-11-21T15:00:01.047Z,13.65
2022-11-21T15:02:29.055Z,14.05
2022-11-21T15:05:00.437Z,12.52
2022-11-21T15:07:31.767Z,14.20
2022-11-21T15:10:28.821Z,14.88
2022-11-21T15:12:48.254Z,14.23
2022-11-21T15:15:33.276Z,14.40
2022-11-21T15:20:50.909Z,14.88
2022-11-21T15:23:29.552Z,13.23
2022-11-21T15:26:00.706Z,15.25
2022-11-21T15:28:27.788Z,13.50
2022-11-21T15:31:12.858Z,15.00
2022-11-21T15:37:00.856Z,13.20
2022-11-21T15:39:27.198Z,14.93
2022-11-21T15:41:53.483Z,15.52
2022-11-21T15:44:21.201Z,14.68
2022-11-21T15:46:50.565Z,14.07
2022-11-21T15:49:33.852Z,15.80
2022-11-21T15:54:47.388Z,15.63
2022-11-21T15:57:11.176Z,17.83
2022-11-21T15:57:16.695Z,14.95
2022-11-21T15:59:43.437Z,18.98
2022-11-21T16:02:11.949Z,14.82
2022-11-21T16:04:38.239Z,19.40
2022-11-21T16:07:07.653Z,18.52
2022-11-21T16:09:34.069Z,16.52
2022-11-21T16:12:00.321Z,19.00
2022-11-21T16:14:26.703Z,18.15
2022-11-21T16:16:52.974Z,19.67
2022-11-21T16:19:19.257Z,19.13
2022-11-21T16:21:45.528Z,21.75
2022-11-21T16:24:11.810Z,21.63
2022-11-21T16:26:38.170Z,19.60
2022-11-21T16:29:05.665Z,20.92
2022-11-21T16:31:32.229Z,19.17
2022-11-21T16:33:59.302Z,20.65
2022-11-21T16:36:27.185Z,21.25
2022-11-21T16:38:53.760Z,19.80
2022-11-21T16:41:21.376Z,20.50
2022-11-21T16:43:56.826Z,24.95
2022-11-21T16:46:24.203Z,22.50
2022-11-21T16:48:57.612Z,24.88
2022-11-21T16:51:23.873Z,20.67
2022-11-21T16:53:50.149Z,23.13
2022-11-21T16:56:16.510Z,20.83
2022-11-21T16:58:43.169Z,22.20
2022-11-21T17:01:29.826Z,21.92
2022-11-21T17:03:56.184Z,19.85
2022-11-21T17:06:28.252Z,19.60
2022-11-21T17:08:54.544Z,21.55
2022-11-21T17:11:22.264Z,21.48
2022-11-21T17:13:49.329Z,17.98
2022-11-21T17:16:16.627Z,19.92
2022-11-21T17:18:43.008Z,20.15
2022-11-21T17:21:10.431Z,22.65
2022-11-21T17:23:37.904Z,19.38
2022-11-21T17:26:08.452Z,19.65
2022-11-21T17:31:05.326Z,24.30
2022-11-21T17:33:31.604Z,21.20
2022-11-21T17:35:57.867Z,20.98
2022-11-21T17:38:24.522Z,21.13
2022-11-21T17:41:11.076Z,18.83
2022-11-21T17:43:37.565Z,19.45
2022-11-21T17:46:10.182Z,21.13
2022-11-21T17:48:37.118Z,21.25
2022-11-21T17:51:04.844Z,20.17
2022-11-21T17:53:32.041Z,18.98
2022-11-21T17:55:59.732Z,19.00
2022-11-21T17:58:29.337Z,21.95
2022-11-21T18:00:56.424Z,23.47
2022-11-21T18:03:23.058Z,20.20
2022-11-21T18:05:51.763Z,20.70
2022-11-21T18:08:19.637Z,19.80
2022-11-21T18:10:51.823Z,17.13
2022-11-21T18:13:18.083Z,20.17
2022-11-21T18:15:44.386Z,18.65
2022-11-21T18:18:10.692Z,17.33
2022-11-21T18:20:36.964Z,20.48
2022-11-21T18:23:03.258Z,18.38
2022-11-21T18:25:29.533Z,19.20
2022-11-21T18:27:56.055Z,20.08
2022-11-21T18:30:22.338Z,22.02
2022-11-21T18:32:49.185Z,20.95
2022-11-21T18:35:15.551Z,21.25
2022-11-21T18:37:42.285Z,22.23
2022-11-21T18:40:09.034Z,22.42
2022-11-21T18:42:35.296Z,21.65
2022-11-21T18:45:01.648Z,20.75
2022-11-21T18:47:27.949Z,22.73
2022-11-21T18:49:54.234Z,18.35
2022-11-21T18:52:20.500Z,21.98
2022-11-21T18:54:47.036Z,20.75
2022-11-21T18:57:13.382Z,21.10
2022-11-21T18:59:39.701Z,26.17
2022-11-21T19:02:06.384Z,23.10
2022-11-21T19:04:32.664Z,23.05
2022-11-21T19:06:58.944Z,24.08
2022-11-21T19:09:31.015Z,20.73
2022-11-21T19:11:58.678Z,23.67
2022-11-21T19:14:25.045Z,27.40
2022-11-21T19:16:51.317Z,22.15
2022-11-21T19:19:35.015Z,26.30
2022-11-21T19:22:01.858Z,22.73
2022-11-21T19:24:28.147Z,24.17
2022-11-21T19:26:54.412Z,26.17
2022-11-21T19:29:20.793Z,24.92
2022-11-21T19:31:47.092Z,25.73
2022-11-21T19:34:13.935Z,25.65
2022-11-21T19:36:40.529Z,21.58
2022-11-21T19:39:07.193Z,22.52
2022-11-21T19:41:33.471Z,21.17
2022-11-21T19:44:00.484Z,19.50
2022-11-21T19:46:27.741Z,19.60
2022-11-21T19:48:54.856Z,18.60
2022-11-21T19:51:22.051Z,19.13
2022-11-21T19:53:48.659Z,19.95
2022-11-21T19:56:18.960Z,19.60
2022-11-21T19:58:45.691Z,19.27
2022-11-21T20:01:19.888Z,17.88
2022-11-21T20:03:47.352Z,19.08
2022-11-21T20:06:30.725Z,20.15
2022-11-21T20:09:01.436Z,19.60
2022-11-21T20:11:29.567Z,18.23
2022-11-21T20:13:56.209Z,17.52
2022-11-21T20:16:25.244Z,17.55
2022-11-21T20:18:51.998Z,19.77
2022-11-21T20:21:18.906Z,17.25
2022-11-21T20:23:48.694Z,19.15
2022-11-21T20:26:15.861Z,17.17
2022-11-21T20:28:42.252Z,20.05
2022-11-21T20:31:09.945Z,19.23
2022-11-21T20:33:43.191Z,17.75
2022-11-21T20:36:18.642Z,19.05
2022-11-21T20:38:52.605Z,17.55
2022-11-21T20:41:19.504Z,17.27
2022-11-21T20:44:27.353Z,17.42
2022-11-21T20:46:33.302Z,19.30
2022-11-21T20:48:59.856Z,18.70
2022-11-21T20:54:12.655Z,19.40
2022-11-21T20:56:43.742Z,18.52
2022-11-21T20:59:10.582Z,17.75
2022-11-21T21:01:36.945Z,18.40
2022-11-21T21:04:03.333Z,17.80
2022-11-21T21:06:29.673Z,19.05
2022-11-21T21:08:55.962Z,17.15
2022-11-21T21:11:50.389Z,17.23
2022-11-21T21:14:09.484Z,18.40
2022-11-21T21:16:36.187Z,17.75
2022-11-21T21:19:02.524Z,18.45
2022-11-21T21:21:30.697Z,15.68
2022-11-21T21:24:00.896Z,16.70
2022-11-21T21:26:28.852Z,18.48
2022-11-21T21:28:55.734Z,18.42
2022-11-21T21:31:22.389Z,16.40
2022-11-21T21:33:49.108Z,15.50
2022-11-21T21:36:20.253Z,15.50
2022-11-21T21:38:50.075Z,14.93
2022-11-21T21:41:16.355Z,16.88
2022-11-21T21:43:42.633Z,17.05
2022-11-21T21:46:10.813Z,14.38
2022-11-21T21:48:37.842Z,16.10
2022-11-21T21:51:07.932Z,15.40
2022-11-21T21:53:37.608Z,17.05
2022-11-21T21:56:04.662Z,15.95
2022-11-21T21:58:32.951Z,15.07
2022-11-21T22:01:06.369Z,14.43
2022-11-21T22:03:33.016Z,13.68
2022-11-21T22:06:02.460Z,14.68
2022-11-21T22:08:30.263Z,14.48
2022-11-21T22:11:03.904Z,13.70
2022-11-21T22:13:30.453Z,13.15
2022-11-21T22:15:57.323Z,13.32
2022-11-21T22:18:23.710Z,15.35
2022-11-21T22:20:50.279Z,13.50
2022-11-21T22:23:16.584Z,13.90
2022-11-21T22:25:42.964Z,14.18
2022-11-21T22:28:09.813Z,12.27
2022-11-21T22:30:36.107Z,12.80
2022-11-21T22:33:02.381Z,13.27
2022-11-21T22:35:31.174Z,13.68
2022-11-21T22:37:58.421Z,12.38
2022-11-21T22:40:24.825Z,13.35
2022-11-21T22:42:53.872Z,14.10
2022-11-21T22:45:20.162Z,13.95
2022-11-21T22:47:48.033Z,16.58
2022-11-21T22:50:15.447Z,13.40
2022-11-21T22:52:41.803Z,11.93
2022-11-21T22:55:08.377Z,11.75
2022-11-21T22:57:34.723Z,12.35
2022-11-21T23:00:01.308Z,12.35
2022-11-21T23:02:27.590Z,12.45
2022-11-21T23:04:53.852Z,12.98
2022-11-21T23:07:20.259Z,13.05
2022-11-21T23:09:46.602Z,14.00
2022-11-21T23:12:12.890Z,13.25
2022-11-21T23:14:39.155Z,12.95
2022-11-21T23:17:05.481Z,14.70
2022-11-21T23:19:31.987Z,13.13
2022-11-21T23:21:58.355Z,11.50
2022-11-21T23:24:24.626Z,11.77
2022-11-21T23:26:51.059Z,15.48
2022-11-21T23:29:17.343Z,12.73
2022-11-21T23:31:43.618Z,13.93
2022-11-21T23:34:11.174Z,14.55
2022-11-21T23:36:37.585Z,16.40
2022-11-21T23:39:04.455Z,14.60
2022-11-21T23:41:30.941Z,16.27
2022-11-21T23:43:57.330Z,15.07
2022-11-21T23:46:23.616Z,15.63
2022-11-21T23:48:50.009Z,15.27
2022-11-21T23:51:16.325Z,16.00
2022-11-21T23:53:42.619Z,14.68
2022-11-21T23:56:08.918Z,13.75
2022-11-21T23:58:35.192Z,12.27
